createdAt,value
2022-11-07T00:00:37.896Z,9.84
2022-11-07T00:03:40.683Z,9.94
2022-11-07T00:06:43.076Z,9.85
2022-11-07T00:09:45.606Z,9.93
2022-11-07T00:12:47.870Z,9.93
2022-11-07T00:15:50.491Z,9.95
2022-11-07T00:18:53.207Z,9.90
2022-11-07T00:21:55.764Z,9.85
2022-11-07T00:24:58.134Z,9.92
2022-11-07T00:28:03.018Z,9.94
2022-11-07T00:31:06.300Z,9.94
2022-11-07T00:34:08.993Z,9.45
2022-11-07T00:37:11.313Z,9.86
2022-11-07T00:40:13.884Z,9.79
2022-11-07T00:43:16.431Z,9.99
2022-11-07T00:46:19.891Z,9.99
2022-11-07T00:49:22.145Z,9.89
2022-11-07T00:52:24.680Z,9.97
2022-11-07T00:55:26.904Z,9.88
2022-11-07T00:58:30.065Z,9.97
2022-11-07T01:01:34.285Z,9.86
2022-11-07T01:04:57.640Z,9.89
2022-11-07T01:07:59.951Z,9.98
2022-11-07T01:11:07.534Z,9.90
2022-11-07T01:14:10.670Z,9.99
2022-11-07T01:17:13.189Z,9.91
2022-11-07T01:20:15.631Z,10.02
2022-11-07T01:23:18.630Z,9.91
2022-11-07T01:26:21.167Z,10.07
2022-11-07T01:29:23.709Z,10.08
2022-11-07T01:32:26.017Z,10.09
2022-11-07T01:35:28.562Z,9.90
2022-11-07T01:38:31.110Z,10.09
2022-11-07T01:41:36.603Z,10.08
2022-11-07T01:44:41.857Z,9.99
2022-11-07T01:47:44.493Z,10.12
2022-11-07T01:50:46.795Z,10.11
2022-11-07T01:53:50.355Z,10.04
2022-11-07T01:56:55.340Z,10.17
2022-11-07T02:00:01.781Z,10.08
2022-11-07T02:03:15.099Z,10.19
2022-11-07T02:06:24.948Z,10.21
2022-11-07T02:09:27.743Z,10.22
2022-11-07T02:12:30.294Z,10.20
2022-11-07T02:15:34.776Z,10.27
2022-11-07T02:18:40.306Z,10.21
2022-11-07T02:22:03.459Z,10.28
2022-11-07T02:25:15.631Z,10.30
2022-11-07T02:28:19.548Z,10.32
2022-11-07T02:31:22.064Z,10.33
2022-11-07T02:34:24.333Z,10.23
2022-11-07T02:37:37.538Z,10.33
2022-11-07T02:40:40.692Z,10.23
2022-11-07T02:43:49.524Z,10.34
2022-11-07T02:46:52.113Z,10.29
2022-11-07T02:49:54.632Z,10.35
2022-11-07T02:52:56.885Z,10.29
2022-11-07T02:55:59.406Z,10.38
2022-11-07T02:59:01.675Z,10.39
2022-11-07T03:02:04.357Z,10.37
2022-11-07T03:05:07.202Z,10.29
2022-11-07T03:08:12.132Z,10.30
2022-11-07T03:11:19.827Z,10.41
2022-11-07T03:14:22.656Z,10.41
2022-11-07T03:17:24.946Z,10.42
2022-11-07T03:20:27.544Z,10.42
2022-11-07T03:23:30.176Z,10.42
2022-11-07T03:26:32.692Z,10.40
2022-11-07T03:29:34.918Z,10.34
2022-11-07T03:32:37.438Z,10.36
2022-11-07T03:35:39.703Z,10.37
2022-11-07T03:38:42.176Z,10.36
2022-11-07T03:41:44.490Z,10.36
2022-11-07T03:44:46.970Z,10.32
2022-11-07T03:47:51.939Z,10.38
2022-11-07T03:50:54.522Z,10.26
2022-11-07T03:53:56.735Z,10.25
2022-11-07T03:56:59.375Z,10.35
2022-11-07T04:00:01.665Z,10.24
2022-11-07T04:03:14.325Z,10.33
2022-11-07T04:06:17.066Z,10.22
2022-11-07T04:09:19.296Z,10.24
2022-11-07T04:12:40.580Z,10.21
2022-11-07T04:16:03.007Z,10.13
2022-11-07T04:19:05.575Z,10.28
2022-11-07T04:22:07.839Z,10.33
2022-11-07T04:25:10.394Z,10.33
2022-11-07T04:28:12.845Z,10.23
2022-11-07T04:31:15.731Z,10.21
2022-11-07T04:34:17.947Z,10.30
2022-11-07T04:37:20.481Z,10.21
2022-11-07T04:40:22.824Z,10.30
2022-11-07T04:43:27.122Z,10.29
2022-11-07T04:46:29.531Z,10.28
2022-11-07T04:49:31.997Z,10.18
2022-11-07T04:52:34.220Z,10.24
2022-11-07T04:55:36.724Z,10.28
2022-11-07T04:58:39.002Z,10.31
2022-11-07T05:01:41.545Z,10.34
2022-11-07T05:04:43.827Z,10.35
2022-11-07T05:07:46.970Z,10.21
2022-11-07T05:10:49.237Z,10.25
2022-11-07T05:13:51.743Z,10.34
2022-11-07T05:16:55.002Z,10.34
2022-11-07T05:19:57.513Z,10.33
2022-11-07T05:23:12.860Z,10.22
2022-11-07T05:26:15.870Z,10.23
2022-11-07T05:29:20.660Z,10.14
2022-11-07T05:32:23.326Z,10.15
2022-11-07T05:35:25.559Z,10.14
2022-11-07T05:38:28.087Z,10.12
2022-11-07T05:41:30.389Z,10.14
2022-11-07T05:44:33.549Z,10.13
2022-11-07T05:47:35.827Z,10.26
2022-11-07T05:50:39.121Z,10.28
2022-11-07T05:53:41.342Z,10.31
2022-11-07T05:56:44.575Z,10.33
2022-11-07T05:59:46.808Z,10.36
2022-11-07T06:02:57.146Z,10.28
2022-11-07T06:05:59.886Z,10.38
2022-11-07T06:09:02.196Z,10.46
2022-11-07T06:12:05.051Z,10.38
2022-11-07T06:15:07.789Z,10.38
2022-11-07T06:18:26.377Z,10.53
2022-11-07T06:21:28.705Z,10.57
2022-11-07T06:24:31.270Z,10.59
2022-11-07T06:27:33.591Z,10.66
2022-11-07T06:30:36.192Z,10.66
2022-11-07T06:33:38.514Z,10.71
2022-11-07T06:36:41.070Z,10.76
2022-11-07T06:39:43.324Z,10.73
2022-11-07T06:42:45.857Z,10.75
2022-11-07T06:45:50.599Z,10.51
2022-11-07T06:48:54.187Z,10.54
2022-11-07T06:51:56.543Z,10.58
2022-11-07T06:54:59.034Z,10.62
2022-11-07T06:58:01.739Z,10.41
2022-11-07T07:01:06.376Z,10.59
2022-11-07T07:04:11.398Z,10.36
2022-11-07T07:07:13.970Z,10.46
2022-11-07T07:10:16.548Z,10.48
2022-11-07T07:13:20.456Z,10.37
2022-11-07T07:16:23.059Z,10.16
2022-11-07T07:19:25.806Z,10.50
2022-11-07T07:22:28.273Z,10.54
2022-11-07T07:25:30.813Z,10.42
2022-11-07T07:28:33.601Z,10.60
2022-11-07T07:31:36.123Z,10.56
2022-11-07T07:34:38.415Z,10.59
2022-11-07T07:37:40.951Z,10.70
2022-11-07T07:40:43.174Z,10.80
2022-11-07T07:43:45.900Z,10.93
2022-11-07T07:46:48.254Z,10.86
2022-11-07T07:49:50.825Z,11.03
2022-11-07T07:53:00.688Z,10.98
2022-11-07T07:56:06.902Z,11.17
2022-11-07T07:59:09.028Z,11.12
2022-11-07T08:02:12.639Z,11.23
2022-11-07T08:05:16.280Z,11.26
2022-11-07T08:08:18.522Z,11.14
2022-11-07T08:11:21.129Z,11.13
2022-11-07T08:14:23.383Z,11.27
2022-11-07T08:17:25.932Z,11.37
2022-11-07T08:20:28.703Z,11.47
2022-11-07T08:23:31.568Z,11.55
2022-11-07T08:26:34.268Z,11.53
2022-11-07T08:29:36.789Z,11.69
2022-11-07T08:32:39.123Z,11.77
2022-11-07T08:35:42.815Z,11.82
2022-11-07T08:38:45.427Z,11.84
2022-11-07T08:41:47.991Z,12.01
2022-11-07T08:44:50.375Z,12.10
2022-11-07T08:47:56.987Z,12.21
2022-11-07T08:51:02.884Z,12.31
2022-11-07T08:54:05.742Z,12.38
2022-11-07T08:57:08.192Z,12.48
2022-11-07T09:00:11.514Z,12.55
2022-11-07T09:06:36.739Z,12.61
2022-11-07T09:09:38.964Z,12.62
2022-11-07T09:12:46.880Z,12.66
2022-11-07T09:15:51.359Z,12.73
2022-11-07T09:18:54.488Z,12.79
2022-11-07T09:21:57.561Z,12.77
2022-11-07T09:25:00.308Z,12.90
2022-11-07T09:28:03.404Z,12.96
2022-11-07T09:31:06.276Z,13.01
2022-11-07T09:34:08.517Z,12.92
2022-11-07T09:37:11.691Z,13.06
2022-11-07T09:40:19.659Z,12.96
2022-11-07T09:43:44.142Z,13.03
2022-11-07T09:47:14.605Z,12.93
2022-11-07T09:50:34.847Z,13.00
2022-11-07T09:53:44.483Z,13.06
2022-11-07T09:56:47.136Z,13.08
2022-11-07T10:00:00.247Z,13.12
2022-11-07T10:03:03.402Z,13.09
2022-11-07T10:06:45.209Z,13.14
2022-11-07T10:10:12.354Z,13.18
2022-11-07T10:13:49.687Z,13.17
2022-11-07T10:17:07.121Z,13.19
2022-11-07T10:20:25.027Z,13.13
2022-11-07T10:23:33.494Z,13.25
2022-11-07T10:26:37.300Z,13.28
2022-11-07T10:29:50.973Z,13.26
2022-11-07T10:32:56.104Z,13.31
2022-11-07T10:36:03.750Z,13.33
2022-11-07T10:39:15.966Z,13.33
2022-11-07T10:42:27.379Z,13.34
2022-11-07T10:45:30.989Z,13.36
2022-11-07T10:48:33.337Z,13.34
2022-11-07T10:51:42.031Z,13.18
2022-11-07T10:54:47.524Z,13.23
2022-11-07T10:58:07.387Z,13.19
2022-11-07T11:01:11.047Z,13.17
2022-11-07T11:04:24.912Z,13.16
2022-11-07T11:07:42.125Z,13.24
2022-11-07T11:10:45.259Z,13.21
2022-11-07T11:14:02.096Z,13.07
2022-11-07T11:17:26.949Z,13.09
2022-11-07T11:20:35.085Z,13.04
2022-11-07T11:23:41.902Z,13.17
2022-11-07T11:26:50.257Z,13.12
2022-11-07T11:29:58.555Z,13.08
2022-11-07T11:33:18.849Z,13.01
2022-11-07T11:36:34.542Z,12.96
2022-11-07T11:39:44.116Z,12.98
2022-11-07T11:42:57.448Z,12.99
2022-11-07T11:46:14.685Z,12.95
2022-11-07T11:49:27.748Z,12.81
2022-11-07T11:52:33.565Z,12.93
2022-11-07T11:55:52.059Z,12.97
2022-11-07T11:59:03.922Z,12.98
2022-11-07T12:02:46.218Z,13.00
2022-11-07T12:06:21.295Z,13.00
2022-11-07T12:09:34.000Z,12.93
2022-11-07T12:13:04.975Z,12.91
2022-11-07T12:16:19.050Z,12.91
2022-11-07T12:19:21.595Z,12.92
2022-11-07T12:23:06.075Z,12.81
2022-11-07T12:26:17.492Z,12.90
2022-11-07T12:29:33.509Z,12.83
2022-11-07T12:33:08.351Z,12.91
2022-11-07T12:36:16.633Z,12.90
2022-11-07T12:39:27.651Z,12.91
2022-11-07T12:42:45.659Z,12.93
2022-11-07T12:46:27.230Z,12.94
2022-11-07T12:49:47.515Z,12.98
2022-11-07T12:52:57.380Z,13.11
2022-11-07T12:56:14.599Z,13.29
2022-11-07T12:59:29.835Z,13.54
2022-11-07T13:02:32.191Z,13.94
2022-11-07T13:05:40.886Z,14.19
2022-11-07T13:08:52.188Z,14.57
2022-11-07T13:12:31.534Z,14.73
2022-11-07T13:15:53.742Z,14.76
2022-11-07T13:19:32.504Z,14.70
2022-11-07T13:22:40.295Z,14.62
2022-11-07T13:25:45.534Z,14.52
2022-11-07T13:29:00.556Z,14.30
2022-11-07T13:32:14.637Z,14.29
2022-11-07T13:35:52.455Z,14.19
2022-11-07T13:38:58.106Z,14.07
2022-11-07T13:42:01.287Z,13.94
2022-11-07T13:45:27.082Z,13.85
2022-11-07T13:48:50.269Z,13.72
2022-11-07T13:51:56.559Z,13.70
2022-11-07T13:55:17.700Z,13.66
2022-11-07T13:58:21.835Z,13.59
2022-11-07T14:01:24.400Z,13.53
2022-11-07T14:04:29.512Z,13.52
2022-11-07T14:07:37.731Z,13.46
2022-11-07T14:10:46.742Z,13.24
2022-11-07T14:13:52.846Z,13.30
2022-11-07T14:17:00.626Z,13.32
2022-11-07T14:20:32.648Z,13.25
2022-11-07T14:23:35.259Z,13.20
2022-11-07T14:26:41.464Z,13.07
2022-11-07T14:29:53.423Z,13.01
2022-11-07T14:32:58.783Z,13.03
2022-11-07T14:36:06.331Z,12.98
2022-11-07T14:39:20.404Z,12.92
2022-11-07T14:42:27.314Z,12.66
2022-11-07T14:46:10.176Z,12.79
2022-11-07T14:48:53.751Z,12.74
2022-11-07T14:51:56.652Z,12.59
2022-11-07T14:55:20.467Z,12.64
2022-11-07T14:58:25.319Z,12.58
2022-11-07T15:01:35.379Z,12.53
2022-11-07T15:04:41.882Z,12.47
2022-11-07T15:07:54.854Z,12.42
2022-11-07T15:11:01.042Z,11.90
2022-11-07T15:14:20.480Z,12.32
2022-11-07T15:17:25.092Z,12.14
2022-11-07T15:20:30.719Z,12.21
2022-11-07T15:23:34.951Z,12.17
2022-11-07T15:26:37.650Z,12.06
2022-11-07T15:29:49.110Z,12.00
2022-11-07T15:32:51.696Z,12.07
2022-11-07T15:35:56.963Z,12.00
2022-11-07T15:39:01.044Z,11.95
2022-11-07T15:42:03.629Z,11.81
2022-11-07T15:45:06.536Z,11.50
2022-11-07T15:48:14.776Z,11.79
2022-11-07T15:51:17.635Z,11.73
2022-11-07T15:54:19.933Z,11.59
2022-11-07T15:57:22.483Z,11.53
2022-11-07T16:00:26.424Z,11.60
2022-11-07T16:03:28.987Z,11.55
2022-11-07T16:06:31.757Z,11.39
2022-11-07T16:09:34.333Z,11.34
2022-11-07T16:12:36.660Z,11.27
2022-11-07T16:15:41.876Z,11.22
2022-11-07T16:18:45.864Z,11.27
2022-11-07T16:21:53.258Z,11.23
2022-11-07T16:24:55.512Z,11.21
2022-11-07T16:28:00.331Z,11.16
2022-11-07T16:31:03.037Z,11.05
2022-11-07T16:34:05.757Z,11.04
2022-11-07T16:37:11.381Z,11.10
2022-11-07T16:40:17.886Z,10.97
2022-11-07T16:43:20.716Z,11.05
2022-11-07T16:46:25.003Z,11.04
2022-11-07T16:49:30.770Z,11.03
2022-11-07T16:52:33.344Z,11.02
2022-11-07T16:55:35.608Z,10.99
2022-11-07T16:58:38.812Z,10.96
2022-11-07T17:01:41.174Z,10.94
2022-11-07T17:04:44.185Z,10.90
2022-11-07T17:07:46.427Z,10.75
2022-11-07T17:10:49.402Z,10.74
2022-11-07T17:13:51.855Z,10.82
2022-11-07T17:16:54.386Z,10.77
2022-11-07T17:19:56.606Z,10.66
2022-11-07T17:22:59.180Z,10.65
2022-11-07T17:26:02.362Z,10.74
2022-11-07T17:29:07.047Z,10.57
2022-11-07T17:32:09.275Z,10.63
2022-11-07T17:35:31.184Z,10.61
2022-11-07T17:38:34.179Z,10.55
2022-11-07T17:41:38.201Z,10.42
2022-11-07T17:44:40.925Z,10.48
2022-11-07T17:47:43.458Z,10.32
2022-11-07T17:50:45.673Z,10.27
2022-11-07T17:53:48.715Z,10.33
2022-11-07T17:56:51.035Z,10.29
2022-11-07T17:59:53.766Z,10.18
2022-11-07T18:02:56.442Z,10.28
2022-11-07T18:05:59.079Z,10.16
2022-11-07T18:09:02.083Z,10.15
2022-11-07T18:12:04.874Z,10.16
2022-11-07T18:15:07.885Z,10.19
2022-11-07T18:18:11.285Z,10.17
2022-11-07T18:21:14.217Z,10.03
2022-11-07T18:24:16.997Z,10.08
2022-11-07T18:27:19.294Z,10.02
2022-11-07T18:30:21.836Z,10.02
2022-11-07T18:33:24.110Z,9.86
2022-11-07T18:36:27.454Z,9.98
2022-11-07T18:39:29.819Z,9.85
2022-11-07T18:42:32.384Z,9.93
2022-11-07T18:45:34.866Z,9.85
2022-11-07T18:48:38.689Z,9.87
2022-11-07T18:51:42.863Z,9.71
2022-11-07T18:54:45.404Z,9.81
2022-11-07T18:57:47.698Z,9.68
2022-11-07T19:00:50.330Z,9.78
2022-11-07T19:03:53.315Z,9.67
2022-11-07T19:06:59.021Z,9.66
2022-11-07T19:10:01.864Z,9.71
2022-11-07T19:13:08.201Z,9.68
2022-11-07T19:16:15.515Z,9.66
2022-11-07T19:19:18.599Z,9.54
2022-11-07T19:22:20.938Z,9.55
2022-11-07T19:25:23.445Z,9.50
2022-11-07T19:28:26.586Z,9.60
2022-11-07T19:31:34.487Z,9.57
2022-11-07T19:34:37.067Z,9.53
2022-11-07T19:37:39.694Z,9.48
2022-11-07T19:40:48.901Z,9.48
2022-11-07T19:43:51.483Z,9.49
2022-11-07T19:46:53.732Z,9.50
2022-11-07T19:49:56.251Z,9.53
2022-11-07T19:52:58.705Z,9.46
2022-11-07T19:56:14.884Z,9.64
2022-11-07T19:59:17.126Z,9.72
2022-11-07T20:02:32.488Z,9.64
2022-11-07T20:05:38.758Z,9.73
2022-11-07T20:08:43.260Z,9.71
2022-11-07T20:11:45.961Z,9.71
2022-11-07T20:14:48.168Z,9.65
2022-11-07T20:17:50.972Z,9.57
2022-11-07T20:21:00.783Z,9.67
2022-11-07T20:24:05.467Z,9.58
2022-11-07T20:27:07.757Z,9.58
2022-11-07T20:30:11.250Z,9.59
2022-11-07T20:33:13.550Z,9.68
2022-11-07T20:36:16.877Z,9.66
2022-11-07T20:39:19.410Z,9.59
2022-11-07T20:42:21.939Z,9.66
2022-11-07T20:45:24.310Z,9.56
2022-11-07T20:48:28.416Z,9.59
2022-11-07T20:51:30.900Z,9.56
2022-11-07T20:54:36.855Z,9.42
2022-11-07T20:57:39.129Z,9.50
2022-11-07T21:00:44.628Z,9.42
2022-11-07T21:03:47.482Z,9.31
2022-11-07T21:06:50.059Z,9.35
2022-11-07T21:09:52.540Z,9.30
2022-11-07T21:12:55.075Z,9.30
2022-11-07T21:15:57.358Z,9.12
2022-11-07T21:19:00.720Z,9.26
2022-11-07T21:22:04.151Z,9.21
2022-11-07T21:25:07.302Z,9.19
2022-11-07T21:28:11.130Z,9.15
2022-11-07T21:31:18.206Z,9.13
2022-11-07T21:34:20.475Z,9.06
2022-11-07T21:37:23.010Z,9.08
2022-11-07T21:40:25.356Z,9.06
2022-11-07T21:43:27.883Z,9.05
2022-11-07T21:46:31.779Z,9.04
2022-11-07T21:49:34.454Z,9.05
2022-11-07T21:52:36.679Z,8.90
2022-11-07T21:55:39.334Z,8.93
2022-11-07T21:58:41.908Z,8.99
2022-11-07T22:01:44.615Z,8.87
2022-11-07T22:04:47.279Z,8.89
2022-11-07T22:07:49.555Z,8.75
2022-11-07T22:10:52.205Z,8.84
2022-11-07T22:13:54.530Z,8.81
2022-11-07T22:16:57.116Z,8.67
2022-11-07T22:19:59.345Z,8.76
2022-11-07T22:23:01.882Z,8.75
2022-11-07T22:26:12.832Z,8.70
2022-11-07T22:29:15.343Z,8.65
2022-11-07T22:32:17.598Z,8.67
2022-11-07T22:35:20.109Z,8.54
2022-11-07T22:38:22.329Z,8.64
2022-11-07T22:41:27.105Z,8.65
2022-11-07T22:44:29.431Z,8.64
2022-11-07T22:47:32.880Z,8.64
2022-11-07T22:50:35.281Z,8.59
2022-11-07T22:53:41.551Z,8.60
2022-11-07T22:56:43.831Z,8.58
2022-11-07T22:59:46.436Z,8.47
2022-11-07T23:02:48.841Z,8.56
2022-11-07T23:05:51.491Z,8.44
2022-11-07T23:08:54.068Z,8.40
2022-11-07T23:11:56.644Z,8.38
2022-11-07T23:14:58.913Z,8.35
2022-11-07T23:18:01.694Z,8.31
2022-11-07T23:21:09.775Z,8.34
2022-11-07T23:24:13.749Z,8.39
2022-11-07T23:27:19.136Z,8.43
2022-11-07T23:30:22.215Z,8.37
2022-11-07T23:33:24.472Z,8.35
2022-11-07T23:36:26.984Z,8.17
2022-11-07T23:39:29.624Z,8.17
2022-11-07T23:42:32.111Z,8.16
2022-11-07T23:45:52.977Z,8.24
2022-11-07T23:49:14.894Z,8.21
2022-11-07T23:52:18.236Z,8.04
2022-11-07T23:55:39.739Z,8.08
2022-11-07T23:59:00.605Z,8.08
